sensor_id;sensor_type;location;lat;lon;timestamp;P1;durP1;ratioP1;P2;durP2;ratioP2
29824;SDS011;16713;52.916;12.834;2023-09-18T00:01:48;9.70;;;7.30;;
29824;SDS011;16713;52.916;12.834;2023-09-18T00:04:14;9.13;;;7.75;;
29824;SDS011;16713;52.916;12.834;2023-09-18T00:06:41;9.13;;;7.93;;
29824;SDS011;16713;52.916;12.834;2023-09-18T00:09:08;8.18;;;7.15;;
29824;SDS011;16713;52.916;12.834;2023-09-18T00:11:37;8.88;;;7.07;;
29824;SDS011;16713;52.916;12.834;2023-09-18T00:14:05;12.65;;;7.72;;
29824;SDS011;16713;52.916;12.834;2023-09-18T00:16:31;9.68;;;6.72;;
29824;SDS011;16713;52.916;12.834;2023-09-18T00:19:17;8.18;;;7.07;;
29824;SDS011;16713;52.916;12.834;2023-09-18T00:21:43;9.63;;;6.60;;
29824;SDS011;16713;52.916;12.834;2023-09-18T00:24:10;8.43;;;7.47;;
29824;SDS011;16713;52.916;12.834;2023-09-18T00:26:37;7.90;;;7.05;;
29824;SDS011;16713;52.916;12.834;2023-09-18T00:29:04;9.48;;;7.30;;
29824;SDS011;16713;52.916;12.834;2023-09-18T00:31:30;11.98;;;6.85;;
29824;SDS011;16713;52.916;12.834;2023-09-18T00:33:57;9.80;;;7.68;;
29824;SDS011;16713;52.916;12.834;2023-09-18T00:36:23;9.82;;;8.45;;
29824;SDS011;16713;52.916;12.834;2023-09-18T00:38:49;9.20;;;8.30;;
29824;SDS011;16713;52.916;12.834;2023-09-18T00:41:16;13.82;;;8.23;;
29824;SDS011;16713;52.916;12.834;2023-09-18T00:43:42;8.48;;;7.55;;
29824;SDS011;16713;52.916;12.834;2023-09-18T00:46:09;11.07;;;7.32;;
29824;SDS011;16713;52.916;12.834;2023-09-18T00:48:35;9.75;;;7.32;;
29824;SDS011;16713;52.916;12.834;2023-09-18T00:51:02;10.35;;;7.03;;
29824;SDS011;16713;52.916;12.834;2023-09-18T00:53:29;8.05;;;7.22;;
29824;SDS011;16713;52.916;12.834;2023-09-18T00:55:56;8.60;;;6.93;;
29824;SDS011;16713;52.916;12.834;2023-09-18T00:58:26;8.32;;;7.18;;
29824;SDS011;16713;52.916;12.834;2023-09-18T01:00:53;8.82;;;7.25;;
29824;SDS011;16713;52.916;12.834;2023-09-18T01:03:19;9.20;;;7.28;;
29824;SDS011;16713;52.916;12.834;2023-09-18T01:05:47;9.18;;;7.10;;
29824;SDS011;16713;52.916;12.834;2023-09-18T01:08:14;8.60;;;7.53;;
29824;SDS011;16713;52.916;12.834;2023-09-18T01:10:43;8.68;;;7.47;;
29824;SDS011;16713;52.916;12.834;2023-09-18T01:16:39;9.57;;;7.75;;
29824;SDS011;16713;52.916;12.834;2023-09-18T01:19:11;8.10;;;6.88;;
29824;SDS011;16713;52.916;12.834;2023-09-18T01:21:38;8.50;;;6.70;;
29824;SDS011;16713;52.916;12.834;2023-09-18T01:24:04;8.50;;;7.00;;
29824;SDS011;16713;52.916;12.834;2023-09-18T01:26:31;10.13;;;7.40;;
29824;SDS011;16713;52.916;12.834;2023-09-18T01:28:58;15.85;;;7.00;;
29824;SDS011;16713;52.916;12.834;2023-09-18T01:31:24;11.50;;;6.88;;
29824;SDS011;16713;52.916;12.834;2023-09-18T01:33:52;12.93;;;7.63;;
29824;SDS011;16713;52.916;12.834;2023-09-18T01:36:20;7.68;;;6.85;;
29824;SDS011;16713;52.916;12.834;2023-09-18T01:38:46;8.10;;;6.85;;
29824;SDS011;16713;52.916;12.834;2023-09-18T01:41:17;9.60;;;7.30;;
29824;SDS011;16713;52.916;12.834;2023-09-18T01:43:43;10.35;;;7.47;;
29824;SDS011;16713;52.916;12.834;2023-09-18T01:46:10;8.35;;;7.22;;
29824;SDS011;16713;52.916;12.834;2023-09-18T01:48:37;7.57;;;6.75;;
29824;SDS011;16713;52.916;12.834;2023-09-18T01:51:04;8.25;;;7.45;;
29824;SDS011;16713;52.916;12.834;2023-09-18T01:53:30;7.32;;;6.55;;
29824;SDS011;16713;52.916;12.834;2023-09-18T01:55:57;8.07;;;7.28;;
29824;SDS011;16713;52.916;12.834;2023-09-18T01:58:23;8.15;;;7.43;;
29824;SDS011;16713;52.916;12.834;2023-09-18T02:00:50;7.57;;;6.88;;
29824;SDS011;16713;52.916;12.834;2023-09-18T02:03:17;10.48;;;6.78;;
29824;SDS011;16713;52.916;12.834;2023-09-18T02:06:06;8.93;;;7.55;;
29824;SDS011;16713;52.916;12.834;2023-09-18T02:08:33;8.35;;;6.93;;
29824;SDS011;16713;52.916;12.834;2023-09-18T02:11:00;11.73;;;7.57;;
29824;SDS011;16713;52.916;12.834;2023-09-18T02:13:27;12.45;;;7.88;;
29824;SDS011;16713;52.916;12.834;2023-09-18T02:15:53;7.82;;;6.50;;
29824;SDS011;16713;52.916;12.834;2023-09-18T02:18:20;9.65;;;7.85;;
29824;SDS011;16713;52.916;12.834;2023-09-18T02:20:46;10.73;;;7.70;;
29824;SDS011;16713;52.916;12.834;2023-09-18T02:23:15;8.57;;;7.47;;
29824;SDS011;16713;52.916;12.834;2023-09-18T02:25:42;8.52;;;6.97;;
29824;SDS011;16713;52.916;12.834;2023-09-18T02:28:08;8.38;;;7.43;;
29824;SDS011;16713;52.916;12.834;2023-09-18T02:30:35;10.27;;;8.90;;
29824;SDS011;16713;52.916;12.834;2023-09-18T02:33:01;12.13;;;9.15;;
29824;SDS011;16713;52.916;12.834;2023-09-18T02:35:29;8.52;;;7.63;;
29824;SDS011;16713;52.916;12.834;2023-09-18T02:37:56;8.88;;;8.05;;
29824;SDS011;16713;52.916;12.834;2023-09-18T02:40:23;9.52;;;7.93;;
29824;SDS011;16713;52.916;12.834;2023-09-18T02:42:49;10.50;;;7.50;;
29824;SDS011;16713;52.916;12.834;2023-09-18T02:45:16;10.18;;;7.63;;
29824;SDS011;16713;52.916;12.834;2023-09-18T02:47:42;9.60;;;7.57;;
29824;SDS011;16713;52.916;12.834;2023-09-18T02:50:09;8.05;;;7.25;;
29824;SDS011;16713;52.916;12.834;2023-09-18T02:52:37;8.93;;;7.25;;
29824;SDS011;16713;52.916;12.834;2023-09-18T02:55:03;13.38;;;7.72;;
29824;SDS011;16713;52.916;12.834;2023-09-18T02:57:31;8.85;;;7.97;;
29824;SDS011;16713;52.916;12.834;2023-09-18T02:59:57;10.60;;;8.30;;
29824;SDS011;16713;52.916;12.834;2023-09-18T03:02:24;9.32;;;8.02;;
29824;SDS011;16713;52.916;12.834;2023-09-18T03:04:51;8.65;;;7.68;;
29824;SDS011;16713;52.916;12.834;2023-09-18T03:07:17;9.43;;;7.30;;
29824;SDS011;16713;52.916;12.834;2023-09-18T03:09:44;8.98;;;8.07;;
29824;SDS011;16713;52.916;12.834;2023-09-18T03:12:10;9.02;;;7.68;;
29824;SDS011;16713;52.916;12.834;2023-09-18T03:14:37;10.48;;;7.80;;
29824;SDS011;16713;52.916;12.834;2023-09-18T03:17:03;8.52;;;7.68;;
29824;SDS011;16713;52.916;12.834;2023-09-18T03:19:30;12.45;;;8.27;;
29824;SDS011;16713;52.916;12.834;2023-09-18T03:21:57;10.80;;;8.57;;
29824;SDS011;16713;52.916;12.834;2023-09-18T03:24:23;16.52;;;8.05;;
29824;SDS011;16713;52.916;12.834;2023-09-18T03:26:49;10.45;;;7.57;;
29824;SDS011;16713;52.916;12.834;2023-09-18T03:29:16;10.52;;;8.38;;
29824;SDS011;16713;52.916;12.834;2023-09-18T03:31:42;8.00;;;7.10;;
29824;SDS011;16713;52.916;12.834;2023-09-18T03:34:09;9.25;;;7.75;;
29824;SDS011;16713;52.916;12.834;2023-09-18T03:36:35;8.55;;;7.43;;
29824;SDS011;16713;52.916;12.834;2023-09-18T03:39:03;9.90;;;7.95;;
29824;SDS011;16713;52.916;12.834;2023-09-18T03:41:31;9.13;;;7.93;;
29824;SDS011;16713;52.916;12.834;2023-09-18T03:44:00;10.85;;;7.78;;
29824;SDS011;16713;52.916;12.834;2023-09-18T03:46:27;9.35;;;8.35;;
29824;SDS011;16713;52.916;12.834;2023-09-18T03:48:53;10.38;;;7.57;;
29824;SDS011;16713;52.916;12.834;2023-09-18T03:51:21;10.05;;;8.25;;
29824;SDS011;16713;52.916;12.834;2023-09-18T03:53:47;9.20;;;8.18;;
29824;SDS011;16713;52.916;12.834;2023-09-18T03:56:14;9.20;;;8.23;;
29824;SDS011;16713;52.916;12.834;2023-09-18T03:58:41;12.25;;;8.55;;
29824;SDS011;16713;52.916;12.834;2023-09-18T04:01:08;8.95;;;8.05;;
29824;SDS011;16713;52.916;12.834;2023-09-18T04:03:34;9.77;;;7.72;;
29824;SDS011;16713;52.916;12.834;2023-09-18T04:06:01;11.13;;;8.10;;
29824;SDS011;16713;52.916;12.834;2023-09-18T04:08:28;8.77;;;7.88;;
29824;SDS011;16713;52.916;12.834;2023-09-18T04:10:55;9.77;;;8.07;;
29824;SDS011;16713;52.916;12.834;2023-09-18T04:13:22;10.45;;;8.82;;
29824;SDS011;16713;52.916;12.834;2023-09-18T04:15:48;10.25;;;8.30;;
29824;SDS011;16713;52.916;12.834;2023-09-18T04:18:15;9.30;;;7.43;;
29824;SDS011;16713;52.916;12.834;2023-09-18T04:20:41;8.88;;;7.97;;
29824;SDS011;16713;52.916;12.834;2023-09-18T04:23:18;10.45;;;8.55;;
29824;SDS011;16713;52.916;12.834;2023-09-18T04:25:46;13.45;;;8.88;;
29824;SDS011;16713;52.916;12.834;2023-09-18T04:28:16;10.00;;;8.00;;
29824;SDS011;16713;52.916;12.834;2023-09-18T04:30:47;10.50;;;8.48;;
29824;SDS011;16713;52.916;12.834;2023-09-18T04:33:14;9.88;;;8.00;;
29824;SDS011;16713;52.916;12.834;2023-09-18T04:35:41;12.77;;;8.85;;
29824;SDS011;16713;52.916;12.834;2023-09-18T04:38:08;9.52;;;8.43;;
29824;SDS011;16713;52.916;12.834;2023-09-18T04:40:34;10.43;;;8.02;;
29824;SDS011;16713;52.916;12.834;2023-09-18T04:43:01;13.68;;;8.10;;
29824;SDS011;16713;52.916;12.834;2023-09-18T04:45:30;8.80;;;7.88;;
29824;SDS011;16713;52.916;12.834;2023-09-18T04:47:57;8.82;;;7.90;;
29824;SDS011;16713;52.916;12.834;2023-09-18T04:50:24;8.93;;;7.97;;
29824;SDS011;16713;52.916;12.834;2023-09-18T04:52:52;8.38;;;7.57;;
29824;SDS011;16713;52.916;12.834;2023-09-18T04:55:21;10.82;;;7.68;;
29824;SDS011;16713;52.916;12.834;2023-09-18T04:57:47;10.75;;;8.25;;
29824;SDS011;16713;52.916;12.834;2023-09-18T05:00:15;9.05;;;8.07;;
29824;SDS011;16713;52.916;12.834;2023-09-18T05:02:43;10.80;;;8.43;;
29824;SDS011;16713;52.916;12.834;2023-09-18T05:05:10;10.15;;;8.15;;
29824;SDS011;16713;52.916;12.834;2023-09-18T05:07:38;9.25;;;8.35;;
29824;SDS011;16713;52.916;12.834;2023-09-18T05:10:04;10.95;;;8.45;;
29824;SDS011;16713;52.916;12.834;2023-09-18T05:12:31;11.23;;;8.50;;
29824;SDS011;16713;52.916;12.834;2023-09-18T05:14:58;9.82;;;7.95;;
29824;SDS011;16713;52.916;12.834;2023-09-18T05:17:39;11.27;;;8.07;;
29824;SDS011;16713;52.916;12.834;2023-09-18T05:20:16;10.48;;;8.60;;
29824;SDS011;16713;52.916;12.834;2023-09-18T05:22:43;11.35;;;8.02;;
29824;SDS011;16713;52.916;12.834;2023-09-18T05:25:14;9.80;;;7.78;;
29824;SDS011;16713;52.916;12.834;2023-09-18T05:27:43;8.68;;;7.78;;
29824;SDS011;16713;52.916;12.834;2023-09-18T05:30:11;8.93;;;8.02;;
29824;SDS011;16713;52.916;12.834;2023-09-18T05:32:39;10.10;;;8.48;;
29824;SDS011;16713;52.916;12.834;2023-09-18T05:35:06;11.00;;;8.25;;
29824;SDS011;16713;52.916;12.834;2023-09-18T05:37:39;10.65;;;8.25;;
29824;SDS011;16713;52.916;12.834;2023-09-18T05:40:06;13.68;;;8.85;;
29824;SDS011;16713;52.916;12.834;2023-09-18T05:42:35;9.00;;;7.60;;
29824;SDS011;16713;52.916;12.834;2023-09-18T05:45:03;13.65;;;8.98;;
29824;SDS011;16713;52.916;12.834;2023-09-18T05:47:33;9.25;;;8.13;;
29824;SDS011;16713;52.916;12.834;2023-09-18T05:50:02;9.35;;;8.35;;
29824;SDS011;16713;52.916;12.834;2023-09-18T05:52:30;8.82;;;7.13;;
29824;SDS011;16713;52.916;12.834;2023-09-18T05:54:56;9.48;;;7.88;;
29824;SDS011;16713;52.916;12.834;2023-09-18T05:57:23;12.23;;;7.88;;
29824;SDS011;16713;52.916;12.834;2023-09-18T05:59:49;11.18;;;8.30;;
29824;SDS011;16713;52.916;12.834;2023-09-18T06:02:15;14.77;;;7.68;;
29824;SDS011;16713;52.916;12.834;2023-09-18T06:04:43;10.25;;;7.72;;
29824;SDS011;16713;52.916;12.834;2023-09-18T06:07:09;8.77;;;7.60;;
29824;SDS011;16713;52.916;12.834;2023-09-18T06:09:35;8.55;;;7.65;;
29824;SDS011;16713;52.916;12.834;2023-09-18T06:12:02;8.20;;;7.40;;
29824;SDS011;16713;52.916;12.834;2023-09-18T06:14:31;9.52;;;8.32;;
29824;SDS011;16713;52.916;12.834;2023-09-18T06:17:00;10.50;;;7.80;;
29824;SDS011;16713;52.916;12.834;2023-09-18T06:19:27;7.95;;;7.15;;
29824;SDS011;16713;52.916;12.834;2023-09-18T06:21:54;10.15;;;6.93;;
29824;SDS011;16713;52.916;12.834;2023-09-18T06:24:20;9.82;;;8.70;;
29824;SDS011;16713;52.916;12.834;2023-09-18T06:26:46;11.00;;;7.60;;
29824;SDS011;16713;52.916;12.834;2023-09-18T06:29:13;14.25;;;8.48;;
29824;SDS011;16713;52.916;12.834;2023-09-18T06:31:40;9.25;;;8.18;;
29824;SDS011;16713;52.916;12.834;2023-09-18T06:34:06;10.40;;;7.43;;
29824;SDS011;16713;52.916;12.834;2023-09-18T06:36:33;8.50;;;7.70;;
29824;SDS011;16713;52.916;12.834;2023-09-18T06:38:59;11.98;;;8.88;;
29824;SDS011;16713;52.916;12.834;2023-09-18T06:41:25;11.70;;;8.30;;
29824;SDS011;16713;52.916;12.834;2023-09-18T06:43:52;9.52;;;8.52;;
29824;SDS011;16713;52.916;12.834;2023-09-18T06:46:18;9.23;;;7.93;;
29824;SDS011;16713;52.916;12.834;2023-09-18T06:48:49;9.32;;;8.27;;
29824;SDS011;16713;52.916;12.834;2023-09-18T06:51:18;9.18;;;8.05;;
29824;SDS011;16713;52.916;12.834;2023-09-18T06:53:52;8.40;;;7.55;;
29824;SDS011;16713;52.916;12.834;2023-09-18T06:56:18;10.27;;;7.50;;
29824;SDS011;16713;52.916;12.834;2023-09-18T06:58:45;9.00;;;7.60;;
29824;SDS011;16713;52.916;12.834;2023-09-18T07:01:13;10.07;;;7.35;;
29824;SDS011;16713;52.916;12.834;2023-09-18T07:03:41;8.88;;;7.32;;
29824;SDS011;16713;52.916;12.834;2023-09-18T07:06:08;9.77;;;7.57;;
29824;SDS011;16713;52.916;12.834;2023-09-18T07:08:34;9.95;;;7.78;;
29824;SDS011;16713;52.916;12.834;2023-09-18T07:11:01;8.98;;;7.05;;
29824;SDS011;16713;52.916;12.834;2023-09-18T07:13:27;12.55;;;8.10;;
29824;SDS011;16713;52.916;12.834;2023-09-18T07:15:53;8.25;;;7.40;;
29824;SDS011;16713;52.916;12.834;2023-09-18T07:18:20;10.68;;;7.18;;
29824;SDS011;16713;52.916;12.834;2023-09-18T07:20:46;8.68;;;7.70;;
29824;SDS011;16713;52.916;12.834;2023-09-18T07:23:13;10.52;;;8.63;;
29824;SDS011;16713;52.916;12.834;2023-09-18T07:25:39;8.48;;;6.95;;
29824;SDS011;16713;52.916;12.834;2023-09-18T07:28:06;11.50;;;7.43;;
29824;SDS011;16713;52.916;12.834;2023-09-18T07:30:33;10.13;;;7.75;;
29824;SDS011;16713;52.916;12.834;2023-09-18T07:33:01;8.05;;;6.57;;
29824;SDS011;16713;52.916;12.834;2023-09-18T07:35:28;9.05;;;6.97;;
29824;SDS011;16713;52.916;12.834;2023-09-18T07:37:55;8.05;;;7.07;;
29824;SDS011;16713;52.916;12.834;2023-09-18T07:40:21;9.85;;;7.20;;
29824;SDS011;16713;52.916;12.834;2023-09-18T07:42:48;6.93;;;6.22;;
29824;SDS011;16713;52.916;12.834;2023-09-18T07:45:14;8.40;;;6.90;;
29824;SDS011;16713;52.916;12.834;2023-09-18T07:47:41;9.05;;;7.85;;
29824;SDS011;16713;52.916;12.834;2023-09-18T07:50:07;8.77;;;7.20;;
29824;SDS011;16713;52.916;12.834;2023-09-18T07:52:35;7.45;;;6.68;;
29824;SDS011;16713;52.916;12.834;2023-09-18T07:55:02;10.07;;;7.72;;
29824;SDS011;16713;52.916;12.834;2023-09-18T07:57:29;8.38;;;6.25;;
29824;SDS011;16713;52.916;12.834;2023-09-18T07:59:58;7.60;;;6.40;;
29824;SDS011;16713;52.916;12.834;2023-09-18T08:02:24;8.95;;;7.07;;
29824;SDS011;16713;52.916;12.834;2023-09-18T08:04:51;10.30;;;6.78;;
29824;SDS011;16713;52.916;12.834;2023-09-18T08:07:19;8.07;;;6.15;;
29824;SDS011;16713;52.916;12.834;2023-09-18T08:09:45;10.60;;;6.03;;
29824;SDS011;16713;52.916;12.834;2023-09-18T08:12:13;6.90;;;6.20;;
29824;SDS011;16713;52.916;12.834;2023-09-18T08:14:40;6.93;;;6.20;;
29824;SDS011;16713;52.916;12.834;2023-09-18T08:17:06;10.52;;;6.70;;
29824;SDS011;16713;52.916;12.834;2023-09-18T08:19:36;7.20;;;5.50;;
29824;SDS011;16713;52.916;12.834;2023-09-18T08:22:02;6.07;;;5.47;;
29824;SDS011;16713;52.916;12.834;2023-09-18T08:24:31;10.32;;;5.93;;
29824;SDS011;16713;52.916;12.834;2023-09-18T08:26:58;10.30;;;5.80;;
29824;SDS011;16713;52.916;12.834;2023-09-18T08:29:25;12.07;;;6.28;;
29824;SDS011;16713;52.916;12.834;2023-09-18T08:31:51;6.82;;;5.60;;
29824;SDS011;16713;52.916;12.834;2023-09-18T08:34:18;6.60;;;5.85;;
29824;SDS011;16713;52.916;12.834;2023-09-18T08:36:48;8.48;;;4.97;;
29824;SDS011;16713;52.916;12.834;2023-09-18T08:39:14;7.72;;;5.32;;
29824;SDS011;16713;52.916;12.834;2023-09-18T08:41:41;6.05;;;5.45;;
29824;SDS011;16713;52.916;12.834;2023-09-18T08:44:09;8.98;;;5.68;;
29824;SDS011;16713;52.916;12.834;2023-09-18T08:46:39;7.22;;;4.93;;
29824;SDS011;16713;52.916;12.834;2023-09-18T08:49:06;7.72;;;5.13;;
29824;SDS011;16713;52.916;12.834;2023-09-18T08:51:33;8.88;;;5.07;;
29824;SDS011;16713;52.916;12.834;2023-09-18T08:54:01;6.03;;;5.40;;
29824;SDS011;16713;52.916;12.834;2023-09-18T08:56:30;6.13;;;5.53;;
29824;SDS011;16713;52.916;12.834;2023-09-18T08:58:58;6.90;;;5.78;;
29824;SDS011;16713;52.916;12.834;2023-09-18T09:01:26;6.30;;;4.93;;
29824;SDS011;16713;52.916;12.834;2023-09-18T09:03:52;6.95;;;5.03;;
29824;SDS011;16713;52.916;12.834;2023-09-18T09:06:19;5.85;;;5.15;;
29824;SDS011;16713;52.916;12.834;2023-09-18T09:08:45;7.88;;;5.15;;
29824;SDS011;16713;52.916;12.834;2023-09-18T09:11:12;6.55;;;5.78;;
29824;SDS011;16713;52.916;12.834;2023-09-18T09:13:39;7.50;;;5.35;;
29824;SDS011;16713;52.916;12.834;2023-09-18T09:16:12;8.90;;;4.95;;
29824;SDS011;16713;52.916;12.834;2023-09-18T09:18:49;6.72;;;4.40;;
29824;SDS011;16713;52.916;12.834;2023-09-18T09:21:17;6.05;;;5.07;;
29824;SDS011;16713;52.916;12.834;2023-09-18T09:23:44;5.95;;;4.65;;
29824;SDS011;16713;52.916;12.834;2023-09-18T09:26:16;7.68;;;5.10;;
29824;SDS011;16713;52.916;12.834;2023-09-18T09:28:44;5.80;;;4.70;;
29824;SDS011;16713;52.916;12.834;2023-09-18T09:31:11;6.28;;;4.82;;
29824;SDS011;16713;52.916;12.834;2023-09-18T09:33:38;6.15;;;5.43;;
29824;SDS011;16713;52.916;12.834;2023-09-18T09:36:07;9.32;;;5.45;;
29824;SDS011;16713;52.916;12.834;2023-09-18T09:38:34;8.82;;;4.95;;
29824;SDS011;16713;52.916;12.834;2023-09-18T09:41:01;5.80;;;5.00;;
29824;SDS011;16713;52.916;12.834;2023-09-18T09:43:29;7.00;;;4.85;;
29824;SDS011;16713;52.916;12.834;2023-09-18T09:45:59;7.15;;;5.35;;
29824;SDS011;16713;52.916;12.834;2023-09-18T09:48:26;7.43;;;5.05;;
29824;SDS011;16713;52.916;12.834;2023-09-18T09:50:57;6.72;;;4.35;;
29824;SDS011;16713;52.916;12.834;2023-09-18T09:53:45;6.55;;;5.32;;
29824;SDS011;16713;52.916;12.834;2023-09-18T09:56:17;5.65;;;4.47;;
29824;SDS011;16713;52.916;12.834;2023-09-18T09:59:04;6.07;;;5.47;;
29824;SDS011;16713;52.916;12.834;2023-09-18T10:01:35;9.57;;;5.32;;
29824;SDS011;16713;52.916;12.834;2023-09-18T10:04:05;6.65;;;5.38;;
29824;SDS011;16713;52.916;12.834;2023-09-18T10:06:40;5.75;;;5.18;;
29824;SDS011;16713;52.916;12.834;2023-09-18T10:09:09;7.60;;;5.78;;
29824;SDS011;16713;52.916;12.834;2023-09-18T10:11:41;6.88;;;5.40;;
29824;SDS011;16713;52.916;12.834;2023-09-18T10:14:17;9.20;;;5.10;;
29824;SDS011;16713;52.916;12.834;2023-09-18T10:16:53;6.05;;;5.45;;
29824;SDS011;16713;52.916;12.834;2023-09-18T10:19:27;7.75;;;5.60;;
29824;SDS011;16713;52.916;12.834;2023-09-18T10:22:01;7.25;;;4.75;;
29824;SDS011;16713;52.916;12.834;2023-09-18T10:27:03;5.72;;;4.60;;
29824;SDS011;16713;52.916;12.834;2023-09-18T10:29:34;5.55;;;4.43;;
29824;SDS011;16713;52.916;12.834;2023-09-18T10:32:03;5.30;;;4.80;;
29824;SDS011;16713;52.916;12.834;2023-09-18T10:34:31;5.85;;;5.00;;
29824;SDS011;16713;52.916;12.834;2023-09-18T10:37:00;6.47;;;4.97;;
29824;SDS011;16713;52.916;12.834;2023-09-18T10:39:37;5.53;;;4.68;;
29824;SDS011;16713;52.916;12.834;2023-09-18T10:42:08;5.10;;;4.57;;
29824;SDS011;16713;52.916;12.834;2023-09-18T10:44:36;5.57;;;4.85;;
29824;SDS011;16713;52.916;12.834;2023-09-18T10:47:06;6.60;;;5.25;;
29824;SDS011;16713;52.916;12.834;2023-09-18T10:49:35;6.78;;;4.75;;
29824;SDS011;16713;52.916;12.834;2023-09-18T10:52:02;5.95;;;5.20;;
29824;SDS011;16713;52.916;12.834;2023-09-18T10:54:30;6.25;;;4.82;;
29824;SDS011;16713;52.916;12.834;2023-09-18T10:56:57;6.68;;;5.00;;
29824;SDS011;16713;52.916;12.834;2023-09-18T10:59:24;5.82;;;4.70;;
29824;SDS011;16713;52.916;12.834;2023-09-18T11:01:51;6.75;;;5.25;;
29824;SDS011;16713;52.916;12.834;2023-09-18T11:04:19;6.50;;;5.35;;
29824;SDS011;16713;52.916;12.834;2023-09-18T11:11:54;10.05;;;6.35;;
29824;SDS011;16713;52.916;12.834;2023-09-18T11:14:42;12.82;;;6.93;;
29824;SDS011;16713;52.916;12.834;2023-09-18T11:20:16;10.55;;;7.50;;
29824;SDS011;16713;52.916;12.834;2023-09-18T11:28:15;14.38;;;7.65;;
29824;SDS011;16713;52.916;12.834;2023-09-18T11:30:53;14.63;;;8.45;;
29824;SDS011;16713;52.916;12.834;2023-09-18T11:33:38;22.05;;;10.75;;
29824;SDS011;16713;52.916;12.834;2023-09-18T11:38:35;17.58;;;7.60;;
29824;SDS011;16713;52.916;12.834;2023-09-18T11:41:23;17.08;;;8.20;;
29824;SDS011;16713;52.916;12.834;2023-09-18T11:43:52;8.85;;;6.47;;
29824;SDS011;16713;52.916;12.834;2023-09-18T11:46:39;9.38;;;6.30;;
29824;SDS011;16713;52.916;12.834;2023-09-18T11:49:11;9.73;;;7.38;;
29824;SDS011;16713;52.916;12.834;2023-09-18T11:51:38;9.10;;;6.95;;
29824;SDS011;16713;52.916;12.834;2023-09-18T11:54:05;9.65;;;7.43;;
29824;SDS011;16713;52.916;12.834;2023-09-18T11:56:33;9.82;;;6.68;;
29824;SDS011;16713;52.916;12.834;2023-09-18T11:59:00;11.15;;;7.63;;
29824;SDS011;16713;52.916;12.834;2023-09-18T12:01:31;7.77;;;6.93;;
29824;SDS011;16713;52.916;12.834;2023-09-18T12:04:02;8.45;;;7.00;;
29824;SDS011;16713;52.916;12.834;2023-09-18T12:06:43;9.95;;;6.90;;
29824;SDS011;16713;52.916;12.834;2023-09-18T12:09:10;8.35;;;6.32;;
29824;SDS011;16713;52.916;12.834;2023-09-18T12:11:40;10.43;;;6.95;;
29824;SDS011;16713;52.916;12.834;2023-09-18T12:14:08;6.88;;;5.72;;
29824;SDS011;16713;52.916;12.834;2023-09-18T12:16:37;7.88;;;6.50;;
29824;SDS011;16713;52.916;12.834;2023-09-18T12:19:07;6.13;;;5.53;;
29824;SDS011;16713;52.916;12.834;2023-09-18T12:21:40;5.90;;;5.40;;
29824;SDS011;16713;52.916;12.834;2023-09-18T12:24:12;6.95;;;6.13;;
29824;SDS011;16713;52.916;12.834;2023-09-18T12:26:40;6.85;;;6.03;;
29824;SDS011;16713;52.916;12.834;2023-09-18T12:29:07;6.55;;;5.95;;
29824;SDS011;16713;52.916;12.834;2023-09-18T12:31:34;6.43;;;5.70;;
29824;SDS011;16713;52.916;12.834;2023-09-18T12:34:01;6.82;;;5.50;;
29824;SDS011;16713;52.916;12.834;2023-09-18T12:36:28;6.63;;;5.80;;
29824;SDS011;16713;52.916;12.834;2023-09-18T12:38:56;9.00;;;7.30;;
29824;SDS011;16713;52.916;12.834;2023-09-18T12:41:24;13.73;;;6.50;;
29824;SDS011;16713;52.916;12.834;2023-09-18T12:43:58;8.07;;;6.07;;
29824;SDS011;16713;52.916;12.834;2023-09-18T12:46:24;7.32;;;6.00;;
29824;SDS011;16713;52.916;12.834;2023-09-18T12:48:52;10.02;;;5.45;;
29824;SDS011;16713;52.916;12.834;2023-09-18T12:51:18;9.20;;;6.15;;
29824;SDS011;16713;52.916;12.834;2023-09-18T12:54:01;7.13;;;5.28;;
29824;SDS011;16713;52.916;12.834;2023-09-18T12:56:33;6.68;;;5.32;;
29824;SDS011;16713;52.916;12.834;2023-09-18T12:59:06;6.55;;;5.25;;
29824;SDS011;16713;52.916;12.834;2023-09-18T13:01:40;7.28;;;5.78;;
29824;SDS011;16713;52.916;12.834;2023-09-18T13:04:07;6.70;;;5.72;;
29824;SDS011;16713;52.916;12.834;2023-09-18T13:06:38;5.90;;;5.30;;
29824;SDS011;16713;52.916;12.834;2023-09-18T13:09:18;6.82;;;4.65;;
29824;SDS011;16713;52.916;12.834;2023-09-18T13:11:56;6.05;;;4.90;;
29824;SDS011;16713;52.916;12.834;2023-09-18T13:14:26;6.00;;;5.45;;
29824;SDS011;16713;52.916;12.834;2023-09-18T13:16:53;10.23;;;5.10;;
29824;SDS011;16713;52.916;12.834;2023-09-18T13:19:19;6.70;;;5.05;;
29824;SDS011;16713;52.916;12.834;2023-09-18T13:21:47;9.07;;;4.90;;
29824;SDS011;16713;52.916;12.834;2023-09-18T13:24:27;7.10;;;4.82;;
29824;SDS011;16713;52.916;12.834;2023-09-18T13:26:55;5.60;;;4.95;;
29824;SDS011;16713;52.916;12.834;2023-09-18T13:29:23;5.32;;;4.82;;
29824;SDS011;16713;52.916;12.834;2023-09-18T13:31:50;6.25;;;4.38;;
29824;SDS011;16713;52.916;12.834;2023-09-18T13:34:17;8.02;;;5.60;;
29824;SDS011;16713;52.916;12.834;2023-09-18T13:36:45;7.43;;;5.00;;
29824;SDS011;16713;52.916;12.834;2023-09-18T13:39:12;6.75;;;5.35;;
29824;SDS011;16713;52.916;12.834;2023-09-18T13:41:39;10.43;;;5.25;;
29824;SDS011;16713;52.916;12.834;2023-09-18T13:44:07;7.80;;;5.38;;
29824;SDS011;16713;52.916;12.834;2023-09-18T13:46:34;7.22;;;5.90;;
29824;SDS011;16713;52.916;12.834;2023-09-18T13:49:03;6.75;;;6.05;;
29824;SDS011;16713;52.916;12.834;2023-09-18T13:51:33;9.65;;;5.35;;
29824;SDS011;16713;52.916;12.834;2023-09-18T13:54:00;9.48;;;5.68;;
29824;SDS011;16713;52.916;12.834;2023-09-18T13:56:26;8.13;;;5.53;;
29824;SDS011;16713;52.916;12.834;2023-09-18T13:58:56;9.60;;;5.97;;
29824;SDS011;16713;52.916;12.834;2023-09-18T14:01:23;8.38;;;4.82;;
29824;SDS011;16713;52.916;12.834;2023-09-18T14:03:52;6.75;;;4.80;;
29824;SDS011;16713;52.916;12.834;2023-09-18T14:06:18;7.53;;;4.03;;
29824;SDS011;16713;52.916;12.834;2023-09-18T14:08:45;4.40;;;3.90;;
29824;SDS011;16713;52.916;12.834;2023-09-18T14:11:11;6.30;;;4.65;;
29824;SDS011;16713;52.916;12.834;2023-09-18T14:13:40;6.63;;;4.45;;
29824;SDS011;16713;52.916;12.834;2023-09-18T14:16:07;9.63;;;4.18;;
29824;SDS011;16713;52.916;12.834;2023-09-18T14:18:34;6.05;;;4.30;;
29824;SDS011;16713;52.916;12.834;2023-09-18T14:21:00;5.15;;;3.72;;
29824;SDS011;16713;52.916;12.834;2023-09-18T14:23:27;5.45;;;3.92;;
29824;SDS011;16713;52.916;12.834;2023-09-18T14:25:54;5.28;;;3.40;;
29824;SDS011;16713;52.916;12.834;2023-09-18T14:28:21;8.55;;;4.00;;
29824;SDS011;16713;52.916;12.834;2023-09-18T14:30:48;8.60;;;4.10;;
29824;SDS011;16713;52.916;12.834;2023-09-18T14:33:14;6.03;;;3.85;;
29824;SDS011;16713;52.916;12.834;2023-09-18T14:35:41;9.07;;;4.75;;
29824;SDS011;16713;52.916;12.834;2023-09-18T14:38:08;6.40;;;3.72;;
29824;SDS011;16713;52.916;12.834;2023-09-18T14:40:35;9.82;;;3.88;;
29824;SDS011;16713;52.916;12.834;2023-09-18T14:43:02;6.88;;;4.03;;
29824;SDS011;16713;52.916;12.834;2023-09-18T14:45:31;5.15;;;3.85;;
29824;SDS011;16713;52.916;12.834;2023-09-18T14:47:57;11.27;;;6.63;;
29824;SDS011;16713;52.916;12.834;2023-09-18T14:50:25;9.13;;;4.13;;
29824;SDS011;16713;52.916;12.834;2023-09-18T14:52:51;8.18;;;4.55;;
29824;SDS011;16713;52.916;12.834;2023-09-18T14:55:18;7.93;;;4.68;;
29824;SDS011;16713;52.916;12.834;2023-09-18T14:57:45;9.45;;;4.55;;
29824;SDS011;16713;52.916;12.834;2023-09-18T15:00:11;9.23;;;5.57;;